createdAt,value
2022-08-22T00:00:17.426Z,15.40
2022-08-22T00:02:59.524Z,16.22
2022-08-22T00:03:04.494Z,16.88
2022-08-22T00:03:08.202Z,16.88
2022-08-22T00:05:58.752Z,15.40
2022-08-22T00:08:33.387Z,15.20
2022-08-22T00:11:09.183Z,15.31
2022-08-22T00:13:43.855Z,15.23
2022-08-22T00:16:19.208Z,15.17
2022-08-22T00:18:55.792Z,15.35
2022-08-22T00:21:30.079Z,15.51
2022-08-22T00:24:15.251Z,15.63
2022-08-22T00:26:49.802Z,15.59
2022-08-22T00:29:23.543Z,15.55
2022-08-22T00:32:06.454Z,15.65
2022-08-22T00:34:39.985Z,15.55
2022-08-22T00:37:11.228Z,15.46
2022-08-22T00:39:46.079Z,15.20
2022-08-22T00:42:41.477Z,15.26
2022-08-22T00:45:32.029Z,15.23
2022-08-22T00:48:18.353Z,15.11
2022-08-22T00:51:29.220Z,15.06
2022-08-22T00:54:07.031Z,14.89
2022-08-22T00:57:27.019Z,14.94
2022-08-22T01:00:15.897Z,14.98
2022-08-22T01:03:07.375Z,14.96
2022-08-22T01:05:53.993Z,15.08
2022-08-22T01:08:43.412Z,15.18
2022-08-22T01:11:33.745Z,15.07
2022-08-22T01:14:15.799Z,14.99
2022-08-22T01:17:17.372Z,14.98
2022-08-22T01:20:11.688Z,15.05
2022-08-22T01:23:27.041Z,15.10
2022-08-22T01:26:47.726Z,15.24
2022-08-22T01:30:01.099Z,15.33
2022-08-22T01:33:08.022Z,15.30
2022-08-22T01:35:59.692Z,15.39
2022-08-22T01:38:47.655Z,15.20
2022-08-22T01:41:35.682Z,14.92
2022-08-22T01:44:16.274Z,14.75
2022-08-22T01:46:56.503Z,14.80
2022-08-22T01:49:28.423Z,14.97
2022-08-22T01:52:07.356Z,14.84
2022-08-22T01:54:45.125Z,14.74
2022-08-22T01:57:14.770Z,14.65
2022-08-22T01:59:47.047Z,14.60
2022-08-22T02:02:25.273Z,14.66
2022-08-22T02:04:59.776Z,14.76
2022-08-22T02:07:40.034Z,14.68
2022-08-22T02:10:14.127Z,14.76
2022-08-22T02:12:46.679Z,14.79
2022-08-22T02:15:21.116Z,14.86
2022-08-22T02:18:18.545Z,14.80
2022-08-22T02:21:03.847Z,14.86
2022-08-22T02:23:44.578Z,14.88
2022-08-22T02:26:17.703Z,15.05
2022-08-22T02:28:57.906Z,15.15
2022-08-22T02:31:38.139Z,15.29
2022-08-22T02:34:34.884Z,15.33
2022-08-22T02:37:12.453Z,15.29
2022-08-22T02:39:50.224Z,15.17
2022-08-22T02:42:27.694Z,14.95
2022-08-22T02:45:04.058Z,14.65
2022-08-22T02:47:41.039Z,14.51
2022-08-22T02:50:27.591Z,14.53
2022-08-22T02:53:02.389Z,14.66
2022-08-22T02:55:43.353Z,14.47
2022-08-22T02:58:20.954Z,14.02
2022-08-22T03:00:52.335Z,14.10
2022-08-22T03:03:26.377Z,14.32
2022-08-22T03:06:01.875Z,13.83
2022-08-22T03:08:34.535Z,13.77
2022-08-22T03:11:16.564Z,14.15
2022-08-22T03:14:02.828Z,14.10
2022-08-22T03:16:39.259Z,13.95
2022-08-22T03:19:13.244Z,14.07
2022-08-22T03:21:58.237Z,14.20
2022-08-22T03:24:33.272Z,14.32
2022-08-22T03:27:08.869Z,14.26
2022-08-22T03:29:40.341Z,14.46
2022-08-22T03:32:16.713Z,14.41
2022-08-22T03:35:00.293Z,14.34
2022-08-22T03:37:39.117Z,14.28
2022-08-22T03:40:22.015Z,14.24
2022-08-22T03:43:08.426Z,14.23
2022-08-22T03:46:13.363Z,14.15
2022-08-22T03:49:26.209Z,13.86
2022-08-22T03:52:12.132Z,13.87
2022-08-22T03:55:07.477Z,13.79
2022-08-22T03:58:27.469Z,13.27
2022-08-22T04:01:36.122Z,13.10
2022-08-22T04:04:45.406Z,13.30
2022-08-22T04:07:45.629Z,13.55
2022-08-22T04:10:37.816Z,13.79
2022-08-22T04:13:25.894Z,13.66
2022-08-22T04:16:24.226Z,13.78
2022-08-22T04:19:12.212Z,13.91
2022-08-22T04:22:02.421Z,13.98
2022-08-22T04:24:48.389Z,13.89
2022-08-22T04:27:25.166Z,13.76
2022-08-22T04:30:03.577Z,13.91
2022-08-22T04:32:38.560Z,13.89
2022-08-22T04:35:11.742Z,13.99
2022-08-22T04:37:48.134Z,14.08
2022-08-22T04:40:23.089Z,13.86
2022-08-22T04:42:55.236Z,13.76
2022-08-22T04:45:28.356Z,14.12
2022-08-22T04:48:05.804Z,14.00
2022-08-22T04:50:43.296Z,14.01
2022-08-22T04:53:26.648Z,14.01
2022-08-22T04:56:07.678Z,14.04
2022-08-22T04:58:44.233Z,14.33
2022-08-22T05:01:17.559Z,14.18
2022-08-22T05:03:53.765Z,14.17
2022-08-22T05:06:26.494Z,14.34
2022-08-22T05:08:56.843Z,14.34
2022-08-22T05:11:25.570Z,14.38
2022-08-22T05:13:57.377Z,14.26
2022-08-22T05:16:29.491Z,14.44
2022-08-22T05:19:03.906Z,14.54
2022-08-22T05:21:36.087Z,14.24
2022-08-22T05:24:07.725Z,14.32
2022-08-22T05:26:41.466Z,14.23
2022-08-22T05:29:12.441Z,14.47
2022-08-22T05:31:46.850Z,14.74
2022-08-22T05:34:20.587Z,14.78
2022-08-22T05:36:56.310Z,14.74
2022-08-22T05:39:27.842Z,14.93
2022-08-22T05:41:58.536Z,15.18
2022-08-22T05:44:28.867Z,15.34
2022-08-22T05:47:02.815Z,15.41
2022-08-22T05:49:38.846Z,15.27
2022-08-22T05:52:17.984Z,15.38
2022-08-22T05:54:54.011Z,15.68
2022-08-22T05:57:28.843Z,15.83
2022-08-22T06:00:09.993Z,15.98
2022-08-22T06:02:58.835Z,16.12
2022-08-22T06:05:30.188Z,16.04
2022-08-22T06:08:04.512Z,16.17
2022-08-22T06:10:41.160Z,16.16
2022-08-22T06:13:15.050Z,16.29
2022-08-22T06:15:50.736Z,16.15
2022-08-22T06:18:24.924Z,16.23
2022-08-22T06:20:57.376Z,16.40
2022-08-22T06:23:29.927Z,16.59
2022-08-22T06:26:01.662Z,16.74
2022-08-22T06:28:34.969Z,16.78
2022-08-22T06:31:04.731Z,16.75
2022-08-22T06:33:40.283Z,16.77
2022-08-22T06:36:32.564Z,16.88
2022-08-22T06:39:21.051Z,16.86
2022-08-22T06:42:05.192Z,16.89
2022-08-22T06:44:37.415Z,17.08
2022-08-22T06:47:09.050Z,17.16
2022-08-22T06:49:40.335Z,17.25
2022-08-22T06:52:14.776Z,17.28
2022-08-22T06:54:49.280Z,17.48
2022-08-22T06:57:28.462Z,17.65
2022-08-22T06:59:58.224Z,17.72
2022-08-22T07:02:31.731Z,17.60
2022-08-22T07:05:00.122Z,17.64
2022-08-22T07:07:29.747Z,17.64
2022-08-22T07:09:58.049Z,17.95
2022-08-22T07:12:35.243Z,18.21
2022-08-22T07:15:19.499Z,18.50
2022-08-22T07:17:54.783Z,18.63
2022-08-22T07:20:28.037Z,18.61
2022-08-22T07:23:02.312Z,18.62
2022-08-22T07:25:31.887Z,18.77
2022-08-22T07:28:15.937Z,19.10
2022-08-22T07:30:57.665Z,19.25
2022-08-22T07:33:44.132Z,19.27
2022-08-22T07:36:25.715Z,19.46
2022-08-22T07:39:13.298Z,19.69
2022-08-22T07:41:54.757Z,19.82
2022-08-22T07:44:25.428Z,19.78
2022-08-22T07:47:00.615Z,19.81
2022-08-22T07:49:33.373Z,19.95
2022-08-22T07:52:05.101Z,20.07
2022-08-22T07:54:42.108Z,20.03
2022-08-22T07:57:13.636Z,19.93
2022-08-22T07:59:49.152Z,19.51
2022-08-22T08:02:19.249Z,19.43
2022-08-22T08:04:50.911Z,19.60
2022-08-22T08:07:23.125Z,19.73
2022-08-22T08:09:58.519Z,19.90
2022-08-22T08:12:37.072Z,19.86
2022-08-22T08:15:08.761Z,20.05
2022-08-22T08:17:39.847Z,20.19
2022-08-22T08:20:12.602Z,20.26
2022-08-22T08:22:44.421Z,20.23
2022-08-22T08:25:20.397Z,20.45
2022-08-22T08:28:06.457Z,20.40
2022-08-22T08:30:46.617Z,20.53
2022-08-22T08:33:24.865Z,20.61
2022-08-22T08:36:02.810Z,20.76
2022-08-22T08:38:35.192Z,20.66
2022-08-22T08:41:34.468Z,20.88
2022-08-22T08:44:17.581Z,20.87
2022-08-22T08:47:34.495Z,20.90
2022-08-22T08:50:24.833Z,21.04
2022-08-22T08:53:24.275Z,21.02
2022-08-22T08:55:58.985Z,21.11
2022-08-22T08:58:40.801Z,21.25
2022-08-22T09:01:20.825Z,21.40
2022-08-22T09:04:40.223Z,21.44
2022-08-22T09:07:35.626Z,21.40
2022-08-22T09:10:23.055Z,21.62
2022-08-22T09:13:15.079Z,21.70
2022-08-22T09:16:05.300Z,21.84
2022-08-22T09:19:04.597Z,21.76
2022-08-22T09:22:14.557Z,21.66
2022-08-22T09:25:12.440Z,21.92
2022-08-22T09:27:50.085Z,22.02
2022-08-22T09:30:28.564Z,22.01
2022-08-22T09:33:03.739Z,22.05
2022-08-22T09:35:45.404Z,22.19
2022-08-22T09:38:29.157Z,22.48
2022-08-22T09:41:09.944Z,22.48
2022-08-22T09:43:48.344Z,22.77
2022-08-22T09:46:31.428Z,22.79
2022-08-22T09:49:13.348Z,22.70
2022-08-22T09:51:49.911Z,22.42
2022-08-22T09:54:31.371Z,22.73
2022-08-22T09:57:16.579Z,23.07
2022-08-22T10:00:17.556Z,23.29
2022-08-22T10:03:01.430Z,23.13
2022-08-22T10:05:43.973Z,23.15
2022-08-22T10:08:20.465Z,23.16
2022-08-22T10:11:15.468Z,22.90
2022-08-22T10:14:00.769Z,23.11
2022-08-22T10:16:50.292Z,22.99
2022-08-22T10:19:26.506Z,23.20
2022-08-22T10:24:59.687Z,23.17
2022-08-22T10:27:44.673Z,23.06
2022-08-22T10:30:18.390Z,22.96
2022-08-22T10:32:52.677Z,22.91
2022-08-22T10:35:27.866Z,22.87
2022-08-22T10:38:00.426Z,22.82
2022-08-22T10:40:39.319Z,23.06
2022-08-22T10:43:13.827Z,23.30
2022-08-22T10:45:45.173Z,23.28
2022-08-22T10:48:35.156Z,23.69
2022-08-22T10:51:36.645Z,23.42
2022-08-22T10:54:20.134Z,23.36
2022-08-22T10:56:56.560Z,23.66
2022-08-22T10:59:40.121Z,23.98
2022-08-22T11:02:28.519Z,23.73
2022-08-22T11:05:16.305Z,23.41
2022-08-22T11:07:48.952Z,22.92
2022-08-22T11:10:30.702Z,23.16
2022-08-22T11:13:16.426Z,23.49
2022-08-22T11:16:04.319Z,23.16
2022-08-22T11:19:02.026Z,23.63
2022-08-22T11:21:43.066Z,24.00
2022-08-22T11:24:53.965Z,24.10
2022-08-22T11:27:38.415Z,24.59
2022-08-22T11:30:18.617Z,24.16
2022-08-22T11:33:33.825Z,23.99
2022-08-22T11:36:31.040Z,24.11
2022-08-22T11:39:19.069Z,24.03
2022-08-22T11:41:56.204Z,23.62
2022-08-22T11:44:32.306Z,23.77
2022-08-22T11:47:09.913Z,24.13
2022-08-22T11:49:51.696Z,24.44
2022-08-22T11:52:37.725Z,24.14
2022-08-22T11:55:21.529Z,24.17
2022-08-22T11:57:52.256Z,24.27
2022-08-22T12:00:27.291Z,24.27
2022-08-22T12:03:23.534Z,23.86
2022-08-22T12:05:55.978Z,23.91
2022-08-22T12:08:46.239Z,23.76
2022-08-22T12:11:23.676Z,23.92
2022-08-22T12:14:05.892Z,24.50
2022-08-22T12:16:44.940Z,24.94
2022-08-22T12:19:22.935Z,24.68
2022-08-22T12:22:32.269Z,25.09
2022-08-22T12:25:15.467Z,24.25
2022-08-22T12:28:07.461Z,24.54
2022-08-22T12:30:44.854Z,24.26
2022-08-22T12:33:45.317Z,24.32
2022-08-22T12:36:53.323Z,24.73
2022-08-22T12:39:55.752Z,24.70
2022-08-22T12:42:43.019Z,24.86
2022-08-22T12:45:33.522Z,25.20
2022-08-22T12:48:14.544Z,25.19
2022-08-22T12:50:50.543Z,25.04
2022-08-22T12:53:51.888Z,25.12
2022-08-22T12:56:33.353Z,25.61
2022-08-22T12:59:20.609Z,25.29
2022-08-22T13:01:51.378Z,24.29
2022-08-22T13:04:33.544Z,23.79
2022-08-22T13:07:18.262Z,23.57
2022-08-22T13:09:52.384Z,24.26
2022-08-22T13:12:25.779Z,24.44
2022-08-22T13:15:00.194Z,24.61
2022-08-22T13:17:29.120Z,24.74
2022-08-22T13:20:10.634Z,25.08
2022-08-22T13:22:45.428Z,25.07
2022-08-22T13:25:26.179Z,25.13
2022-08-22T13:27:59.306Z,25.51
2022-08-22T13:30:33.665Z,25.72
2022-08-22T13:33:09.566Z,25.97
2022-08-22T13:35:49.187Z,25.68
2022-08-22T13:38:25.947Z,25.57
2022-08-22T13:40:58.644Z,25.56
2022-08-22T13:43:30.199Z,25.10
2022-08-22T13:46:01.877Z,25.04
2022-08-22T13:48:46.707Z,25.14
2022-08-22T13:51:22.353Z,25.20
2022-08-22T13:54:01.060Z,25.19
2022-08-22T13:56:43.516Z,25.09
2022-08-22T13:59:47.150Z,24.82
2022-08-22T14:02:15.168Z,24.56
2022-08-22T14:04:48.179Z,24.83
2022-08-22T14:07:30.274Z,24.70
2022-08-22T14:10:03.109Z,25.10
2022-08-22T14:12:50.131Z,25.25
2022-08-22T14:15:24.140Z,25.18
2022-08-22T14:17:56.903Z,25.47
2022-08-22T14:20:28.558Z,25.79
2022-08-22T14:23:04.269Z,25.61
2022-08-22T14:25:36.924Z,25.54
2022-08-22T14:28:09.312Z,25.70
2022-08-22T14:30:54.644Z,25.43
2022-08-22T14:33:33.290Z,25.38
2022-08-22T14:36:05.327Z,25.46
2022-08-22T14:38:39.418Z,25.52
2022-08-22T14:41:28.443Z,26.09
2022-08-22T14:44:23.942Z,26.32
2022-08-22T14:46:56.577Z,26.33
2022-08-22T14:49:48.333Z,26.41
2022-08-22T14:52:30.168Z,26.18
2022-08-22T14:55:09.974Z,25.56
2022-08-22T14:57:44.990Z,25.61
2022-08-22T15:00:24.756Z,25.74
2022-08-22T15:03:11.732Z,25.07
2022-08-22T15:05:46.589Z,24.61
2022-08-22T15:08:24.331Z,24.77
2022-08-22T15:11:15.523Z,25.00
2022-08-22T15:13:51.322Z,25.37
2022-08-22T15:16:24.220Z,25.72
2022-08-22T15:18:52.309Z,25.80
2022-08-22T15:21:24.806Z,26.10
2022-08-22T15:23:55.787Z,25.98
2022-08-22T15:26:30.704Z,25.66
2022-08-22T15:29:06.918Z,25.60
2022-08-22T15:31:41.473Z,25.36
2022-08-22T15:34:18.024Z,25.58
2022-08-22T15:37:09.865Z,25.51
2022-08-22T15:40:08.058Z,25.40
2022-08-22T15:42:40.562Z,25.46
2022-08-22T15:45:19.122Z,25.35
2022-08-22T15:47:52.216Z,25.16
2022-08-22T15:50:33.348Z,25.67
2022-08-22T15:53:18.259Z,25.99
2022-08-22T15:56:29.165Z,26.02
2022-08-22T15:59:27.512Z,26.02
2022-08-22T16:02:01.582Z,25.44
2022-08-22T16:04:49.296Z,25.38
2022-08-22T16:07:26.458Z,25.77
2022-08-22T16:09:57.849Z,25.65
2022-08-22T16:12:31.089Z,25.66
2022-08-22T16:15:01.049Z,25.82
2022-08-22T16:17:53.234Z,25.46
2022-08-22T16:20:56.973Z,25.73
2022-08-22T16:23:24.960Z,25.65
2022-08-22T16:26:10.659Z,25.83
2022-08-22T16:28:59.163Z,25.85
2022-08-22T16:31:34.800Z,25.36
2022-08-22T16:34:23.855Z,25.37
2022-08-22T16:37:46.487Z,25.22
2022-08-22T16:40:20.024Z,24.73
2022-08-22T16:42:52.651Z,24.51
2022-08-22T16:45:31.144Z,24.52
2022-08-22T16:47:59.514Z,24.23
2022-08-22T16:50:36.675Z,24.29
2022-08-22T16:53:11.778Z,24.32
2022-08-22T16:55:46.306Z,24.25
2022-08-22T16:58:57.812Z,24.09
2022-08-22T17:01:52.158Z,23.93
2022-08-22T17:04:28.008Z,23.72
2022-08-22T17:07:07.090Z,23.71
2022-08-22T17:10:03.191Z,23.50
2022-08-22T17:12:46.020Z,23.23
2022-08-22T17:15:32.514Z,23.13
2022-08-22T17:18:21.244Z,22.99
2022-08-22T17:21:06.682Z,22.72
2022-08-22T17:23:52.093Z,22.50
2022-08-22T17:26:37.371Z,22.30
2022-08-22T17:29:15.984Z,22.07
2022-08-22T17:31:54.671Z,21.84
2022-08-22T17:34:37.468Z,21.71
2022-08-22T17:37:11.295Z,21.57
2022-08-22T17:40:07.354Z,21.39
2022-08-22T17:42:52.409Z,21.23
2022-08-22T17:45:28.385Z,21.02
2022-08-22T17:48:01.644Z,21.00
2022-08-22T17:50:39.346Z,20.89
2022-08-22T17:53:13.065Z,20.84
2022-08-22T17:55:59.570Z,20.71
2022-08-22T17:58:43.421Z,20.57
2022-08-22T18:01:15.262Z,20.44
2022-08-22T18:03:51.862Z,20.34
2022-08-22T18:06:23.729Z,20.21
2022-08-22T18:09:14.111Z,20.12
2022-08-22T18:11:51.126Z,20.00
2022-08-22T18:14:31.040Z,19.92
2022-08-22T18:17:01.075Z,19.84
2022-08-22T18:19:42.908Z,19.79
2022-08-22T18:22:23.274Z,19.73
2022-08-22T18:24:56.510Z,19.61
2022-08-22T18:27:34.806Z,19.47
2022-08-22T18:30:15.382Z,19.28
2022-08-22T18:32:53.727Z,19.05
2022-08-22T18:35:26.723Z,18.89
2022-08-22T18:38:01.676Z,18.66
2022-08-22T18:40:46.869Z,18.44
2022-08-22T18:43:23.856Z,18.28
2022-08-22T18:46:03.963Z,18.26
2022-08-22T18:49:05.444Z,18.21
2022-08-22T18:51:38.300Z,18.24
2022-08-22T18:54:28.508Z,18.25
2022-08-22T18:57:06.886Z,18.28
2022-08-22T18:59:47.614Z,18.28
2022-08-22T19:02:39.060Z,18.33
2022-08-22T19:05:28.484Z,18.20
2022-08-22T19:08:40.445Z,18.05
2022-08-22T19:11:36.448Z,17.90
2022-08-22T19:14:21.632Z,17.83
2022-08-22T19:17:29.354Z,17.76
2022-08-22T19:20:19.633Z,17.71
2022-08-22T19:22:51.151Z,17.62
2022-08-22T19:25:26.038Z,17.58
2022-08-22T19:28:26.707Z,17.51
2022-08-22T19:31:22.653Z,17.48
2022-08-22T19:34:11.743Z,17.45
2022-08-22T19:36:41.512Z,17.42
2022-08-22T19:39:10.588Z,17.24
2022-08-22T19:41:52.826Z,16.98
2022-08-22T19:44:37.565Z,16.82
2022-08-22T19:47:16.608Z,16.69
2022-08-22T19:49:49.351Z,16.56
2022-08-22T19:52:31.181Z,16.48
2022-08-22T19:55:16.352Z,16.42
2022-08-22T19:57:56.657Z,16.44
2022-08-22T20:00:47.537Z,16.38
2022-08-22T20:03:30.982Z,16.35
2022-08-22T20:06:13.746Z,16.33
2022-08-22T20:09:04.742Z,16.35
2022-08-22T20:11:44.973Z,16.32
2022-08-22T20:14:29.903Z,16.25
2022-08-22T20:17:09.061Z,16.16
2022-08-22T20:19:40.083Z,16.08
2022-08-22T20:22:11.980Z,16.03
2022-08-22T20:24:46.675Z,15.98
2022-08-22T20:27:18.607Z,15.92
2022-08-22T20:29:54.961Z,15.84
2022-08-22T20:32:26.064Z,15.73
2022-08-22T20:35:00.632Z,15.63
2022-08-22T20:37:56.226Z,15.60
2022-08-22T20:40:55.324Z,15.57
2022-08-22T20:43:28.883Z,15.60
2022-08-22T20:46:06.990Z,15.61
2022-08-22T20:48:39.318Z,15.65
2022-08-22T20:51:09.260Z,15.64
2022-08-22T20:53:38.423Z,15.56
2022-08-22T20:56:09.533Z,15.50
2022-08-22T20:58:40.931Z,15.38
2022-08-22T21:01:12.440Z,15.34
2022-08-22T21:03:44.302Z,15.28
2022-08-22T21:06:15.275Z,15.21
2022-08-22T21:08:44.434Z,15.18
2022-08-22T21:11:41.004Z,15.14
2022-08-22T21:14:24.178Z,15.07
2022-08-22T21:16:53.094Z,15.07
2022-08-22T21:19:27.556Z,15.10
2022-08-22T21:22:10.755Z,15.11
2022-08-22T21:24:38.685Z,15.08
2022-08-22T21:27:09.369Z,14.96
2022-08-22T21:29:45.248Z,14.82
2022-08-22T21:32:24.552Z,14.64
2022-08-22T21:34:53.171Z,14.52
2022-08-22T21:37:26.943Z,14.33
2022-08-22T21:40:01.708Z,14.25
2022-08-22T21:42:35.877Z,14.19
2022-08-22T21:45:07.029Z,14.19
2022-08-22T21:47:37.041Z,14.19
2022-08-22T21:50:16.255Z,14.20
2022-08-22T21:52:45.907Z,14.22
2022-08-22T21:55:25.410Z,14.17
2022-08-22T21:58:13.707Z,14.05
2022-08-22T22:01:03.083Z,14.00
2022-08-22T22:03:36.753Z,14.01
2022-08-22T22:06:06.768Z,14.96
2022-08-22T22:08:34.942Z,15.41
2022-08-22T22:11:08.493Z,15.69
2022-08-22T22:13:38.392Z,15.96
2022-08-22T22:16:07.690Z,15.86
2022-08-22T22:18:36.765Z,15.61
2022-08-22T22:21:05.768Z,15.67
2022-08-22T22:23:33.742Z,15.67
2022-08-22T22:26:05.406Z,15.71
2022-08-22T22:28:35.915Z,15.68
2022-08-22T22:31:05.991Z,15.66
2022-08-22T22:33:39.247Z,15.55
2022-08-22T22:36:11.148Z,15.39
2022-08-22T22:38:40.345Z,15.24
2022-08-22T22:41:08.735Z,15.23
2022-08-22T22:43:36.806Z,15.26
2022-08-22T22:46:06.435Z,15.28
2022-08-22T22:48:34.735Z,15.19
2022-08-22T22:51:09.238Z,15.18
2022-08-22T22:53:42.771Z,15.20
2022-08-22T22:56:14.253Z,14.98
2022-08-22T22:58:44.314Z,14.92
2022-08-22T23:01:16.402Z,14.86
2022-08-22T23:03:45.235Z,14.99
2022-08-22T23:06:14.477Z,15.02
2022-08-22T23:08:42.709Z,14.85
2022-08-22T23:11:12.628Z,14.99
2022-08-22T23:13:41.729Z,15.13
2022-08-22T23:16:15.016Z,15.07
2022-08-22T23:18:43.197Z,14.85
2022-08-22T23:21:12.729Z,14.84
2022-08-22T23:23:40.653Z,14.75
2022-08-22T23:26:09.308Z,14.67
2022-08-22T23:28:37.686Z,14.72
2022-08-22T23:31:17.437Z,14.84
2022-08-22T23:33:46.557Z,14.70
2022-08-22T23:36:17.884Z,14.76
2022-08-22T23:38:46.126Z,14.62
2022-08-22T23:41:17.614Z,14.44
2022-08-22T23:43:47.607Z,14.19
2022-08-22T23:46:19.340Z,14.16
2022-08-22T23:48:47.806Z,14.19
2022-08-22T23:51:17.461Z,14.28
2022-08-22T23:53:51.407Z,14.20
2022-08-22T23:56:22.770Z,14.27
2022-08-22T23:58:51.167Z,14.48
